Terminal Aerodrome Forecast
Issued by NWS Knoxville/Tri Cities, TN

Home | Current Version | Previous Version | Text Only | Print | Product List | Glossary On
Versions: 1 2 3 4 5 6 7 8 9 10 11 12 13 14 15 16 17 18 19 20 21 22 23 24 25 26 27 28 29 30 31 32 33 34 35 36 37 38 39 40 41 42
000
FTUS44 KMRX 221129
TAFTRI
TAF
KTRI 221129Z 2212/2312 00000KT 4SM BR SCT008 BKN045
     FM221330 VRB04KT P6SM SCT045
     FM221600 26008KT P6SM VCTS BKN040CB
     FM230100 26005KT P6SM VCSH BKN050 OVC100
     FM230500 00000KT 2SM BR SCT004 SCT045 BKN120=

USA.gov is the U.S. government's official web portal to all federal, state and local government web resources and services.